sensor_id;sensor_type;location;lat;lon;timestamp;P1;durP1;ratioP1;P2;durP2;ratioP2
31872;SDS011;22407;42.820;23.374;2022-07-23T00:00:35;9.03;;;4.40;;
31872;SDS011;22407;42.820;23.374;2022-07-23T00:03:04;9.40;;;4.30;;
31872;SDS011;22407;42.820;23.374;2022-07-23T00:05:34;10.28;;;4.87;;
31872;SDS011;22407;42.820;23.374;2022-07-23T00:08:03;10.50;;;4.33;;
31872;SDS011;22407;42.820;23.374;2022-07-23T00:10:33;9.53;;;4.20;;
31872;SDS011;22407;42.820;23.374;2022-07-23T00:13:02;9.83;;;4.45;;
31872;SDS011;22407;42.820;23.374;2022-07-23T00:15:31;10.90;;;4.33;;
31872;SDS011;22407;42.820;23.374;2022-07-23T00:18:00;9.35;;;4.70;;
31872;SDS011;22407;42.820;23.374;2022-07-23T00:20:29;11.17;;;4.60;;
31872;SDS011;22407;42.820;23.374;2022-07-23T00:22:58;9.70;;;4.55;;
31872;SDS011;22407;42.820;23.374;2022-07-23T00:25:27;10.48;;;4.83;;
31872;SDS011;22407;42.820;23.374;2022-07-23T00:27:56;10.82;;;5.08;;
31872;SDS011;22407;42.820;23.374;2022-07-23T00:30:26;10.05;;;4.95;;
31872;SDS011;22407;42.820;23.374;2022-07-23T00:32:58;10.43;;;5.00;;
31872;SDS011;22407;42.820;23.374;2022-07-23T00:35:30;11.78;;;5.15;;
31872;SDS011;22407;42.820;23.374;2022-07-23T00:38:02;11.25;;;4.90;;
31872;SDS011;22407;42.820;23.374;2022-07-23T00:40:32;11.30;;;4.58;;
31872;SDS011;22407;42.820;23.374;2022-07-23T00:43:01;10.45;;;5.00;;
31872;SDS011;22407;42.820;23.374;2022-07-23T00:45:31;9.97;;;4.70;;
31872;SDS011;22407;42.820;23.374;2022-07-23T00:48:00;10.70;;;4.92;;
31872;SDS011;22407;42.820;23.374;2022-07-23T00:50:30;10.78;;;5.00;;
31872;SDS011;22407;42.820;23.374;2022-07-23T00:52:59;11.05;;;5.60;;
31872;SDS011;22407;42.820;23.374;2022-07-23T00:55:28;10.35;;;4.83;;
31872;SDS011;22407;42.820;23.374;2022-07-23T00:57:57;11.63;;;4.90;;
31872;SDS011;22407;42.820;23.374;2022-07-23T01:00:26;11.93;;;5.15;;
31872;SDS011;22407;42.820;23.374;2022-07-23T01:02:56;10.78;;;4.92;;
31872;SDS011;22407;42.820;23.374;2022-07-23T01:05:25;10.10;;;4.62;;
31872;SDS011;22407;42.820;23.374;2022-07-23T01:07:54;10.85;;;4.95;;
31872;SDS011;22407;42.820;23.374;2022-07-23T01:10:23;10.17;;;4.60;;
31872;SDS011;22407;42.820;23.374;2022-07-23T01:12:59;11.08;;;4.87;;
31872;SDS011;22407;42.820;23.374;2022-07-23T01:15:31;11.55;;;5.17;;
31872;SDS011;22407;42.820;23.374;2022-07-23T01:18:01;11.40;;;5.03;;
31872;SDS011;22407;42.820;23.374;2022-07-23T01:20:31;11.15;;;4.95;;
31872;SDS011;22407;42.820;23.374;2022-07-23T01:23:00;11.87;;;4.80;;
31872;SDS011;22407;42.820;23.374;2022-07-23T01:25:29;12.13;;;5.20;;
31872;SDS011;22407;42.820;23.374;2022-07-23T01:27:59;10.35;;;4.70;;
31872;SDS011;22407;42.820;23.374;2022-07-23T01:30:28;11.63;;;5.20;;
31872;SDS011;22407;42.820;23.374;2022-07-23T01:32:57;11.78;;;5.28;;
31872;SDS011;22407;42.820;23.374;2022-07-23T01:35:26;12.13;;;5.60;;
31872;SDS011;22407;42.820;23.374;2022-07-23T01:37:55;12.10;;;5.17;;
31872;SDS011;22407;42.820;23.374;2022-07-23T01:40:24;12.33;;;5.17;;
31872;SDS011;22407;42.820;23.374;2022-07-23T01:42:52;13.15;;;5.20;;
31872;SDS011;22407;42.820;23.374;2022-07-23T01:45:21;12.10;;;5.15;;
31872;SDS011;22407;42.820;23.374;2022-07-23T01:47:50;11.70;;;5.17;;
31872;SDS011;22407;42.820;23.374;2022-07-23T01:50:19;11.45;;;5.62;;
31872;SDS011;22407;42.820;23.374;2022-07-23T01:52:48;12.88;;;5.35;;
31872;SDS011;22407;42.820;23.374;2022-07-23T01:55:17;10.72;;;5.10;;
31872;SDS011;22407;42.820;23.374;2022-07-23T01:57:46;11.28;;;5.42;;
31872;SDS011;22407;42.820;23.374;2022-07-23T02:00:15;10.70;;;5.10;;
31872;SDS011;22407;42.820;23.374;2022-07-23T02:02:44;11.22;;;5.20;;
31872;SDS011;22407;42.820;23.374;2022-07-23T02:05:13;11.85;;;5.05;;
31872;SDS011;22407;42.820;23.374;2022-07-23T02:07:42;12.13;;;4.90;;
31872;SDS011;22407;42.820;23.374;2022-07-23T02:10:11;12.28;;;5.45;;
31872;SDS011;22407;42.820;23.374;2022-07-23T02:12:40;11.67;;;5.33;;
31872;SDS011;22407;42.820;23.374;2022-07-23T02:15:09;10.55;;;4.90;;
31872;SDS011;22407;42.820;23.374;2022-07-23T02:17:38;10.40;;;5.03;;
31872;SDS011;22407;42.820;23.374;2022-07-23T02:20:07;9.93;;;5.22;;
31872;SDS011;22407;42.820;23.374;2022-07-23T02:22:37;11.63;;;5.30;;
31872;SDS011;22407;42.820;23.374;2022-07-23T02:25:06;13.70;;;5.00;;
31872;SDS011;22407;42.820;23.374;2022-07-23T02:27:36;10.20;;;5.28;;
31872;SDS011;22407;42.820;23.374;2022-07-23T02:30:05;12.37;;;5.33;;
31872;SDS011;22407;42.820;23.374;2022-07-23T02:32:35;11.30;;;5.33;;
31872;SDS011;22407;42.820;23.374;2022-07-23T02:35:06;11.83;;;5.20;;
31872;SDS011;22407;42.820;23.374;2022-07-23T02:37:35;9.97;;;4.80;;
31872;SDS011;22407;42.820;23.374;2022-07-23T02:40:04;11.48;;;4.92;;
31872;SDS011;22407;42.820;23.374;2022-07-23T02:42:33;13.68;;;5.33;;
31872;SDS011;22407;42.820;23.374;2022-07-23T02:45:02;11.55;;;5.75;;
31872;SDS011;22407;42.820;23.374;2022-07-23T02:47:31;10.75;;;5.05;;
31872;SDS011;22407;42.820;23.374;2022-07-23T02:50:00;13.07;;;4.87;;
31872;SDS011;22407;42.820;23.374;2022-07-23T02:52:31;10.60;;;4.90;;
31872;SDS011;22407;42.820;23.374;2022-07-23T02:55:00;12.35;;;5.53;;
31872;SDS011;22407;42.820;23.374;2022-07-23T02:57:29;11.60;;;5.00;;
31872;SDS011;22407;42.820;23.374;2022-07-23T02:59:58;10.70;;;5.30;;
31872;SDS011;22407;42.820;23.374;2022-07-23T03:02:27;12.13;;;5.43;;
31872;SDS011;22407;42.820;23.374;2022-07-23T03:04:56;11.30;;;5.20;;
31872;SDS011;22407;42.820;23.374;2022-07-23T03:07:25;12.00;;;5.33;;
31872;SDS011;22407;42.820;23.374;2022-07-23T03:09:53;11.38;;;5.28;;
31872;SDS011;22407;42.820;23.374;2022-07-23T03:12:22;12.63;;;5.20;;
31872;SDS011;22407;42.820;23.374;2022-07-23T03:14:51;12.50;;;5.20;;
31872;SDS011;22407;42.820;23.374;2022-07-23T03:17:21;11.05;;;5.17;;
31872;SDS011;22407;42.820;23.374;2022-07-23T03:19:50;11.60;;;5.45;;
31872;SDS011;22407;42.820;23.374;2022-07-23T03:22:18;11.12;;;5.40;;
31872;SDS011;22407;42.820;23.374;2022-07-23T03:24:47;11.88;;;5.47;;
31872;SDS011;22407;42.820;23.374;2022-07-23T03:27:23;10.67;;;5.03;;
31872;SDS011;22407;42.820;23.374;2022-07-23T03:29:54;12.73;;;5.53;;
31872;SDS011;22407;42.820;23.374;2022-07-23T03:32:25;12.60;;;5.50;;
31872;SDS011;22407;42.820;23.374;2022-07-23T03:34:54;11.00;;;5.67;;
31872;SDS011;22407;42.820;23.374;2022-07-23T03:37:23;11.73;;;5.47;;
31872;SDS011;22407;42.820;23.374;2022-07-23T03:39:52;11.90;;;5.60;;
31872;SDS011;22407;42.820;23.374;2022-07-23T03:42:21;13.55;;;5.40;;
31872;SDS011;22407;42.820;23.374;2022-07-23T03:44:50;12.85;;;5.60;;
31872;SDS011;22407;42.820;23.374;2022-07-23T03:47:18;11.12;;;5.45;;
31872;SDS011;22407;42.820;23.374;2022-07-23T03:49:48;11.10;;;5.55;;
31872;SDS011;22407;42.820;23.374;2022-07-23T03:52:18;10.13;;;5.30;;
31872;SDS011;22407;42.820;23.374;2022-07-23T03:54:47;13.70;;;5.90;;
31872;SDS011;22407;42.820;23.374;2022-07-23T03:57:16;12.30;;;5.35;;
31872;SDS011;22407;42.820;23.374;2022-07-23T03:59:45;12.47;;;5.67;;
31872;SDS011;22407;42.820;23.374;2022-07-23T04:02:13;23.85;;;6.40;;
31872;SDS011;22407;42.820;23.374;2022-07-23T04:04:42;13.47;;;6.00;;
31872;SDS011;22407;42.820;23.374;2022-07-23T04:07:11;14.40;;;5.92;;
31872;SDS011;22407;42.820;23.374;2022-07-23T04:09:40;14.55;;;5.83;;
31872;SDS011;22407;42.820;23.374;2022-07-23T04:12:10;13.28;;;6.22;;
31872;SDS011;22407;42.820;23.374;2022-07-23T04:14:39;13.18;;;5.53;;
31872;SDS011;22407;42.820;23.374;2022-07-23T04:17:08;16.30;;;6.13;;
31872;SDS011;22407;42.820;23.374;2022-07-23T04:19:38;15.18;;;6.53;;
31872;SDS011;22407;42.820;23.374;2022-07-23T04:22:08;15.43;;;6.40;;
31872;SDS011;22407;42.820;23.374;2022-07-23T04:24:40;15.08;;;6.45;;
31872;SDS011;22407;42.820;23.374;2022-07-23T04:27:09;12.90;;;6.42;;
31872;SDS011;22407;42.820;23.374;2022-07-23T04:29:38;13.57;;;6.40;;
31872;SDS011;22407;42.820;23.374;2022-07-23T04:32:07;16.73;;;7.17;;
31872;SDS011;22407;42.820;23.374;2022-07-23T04:34:36;15.70;;;6.53;;
31872;SDS011;22407;42.820;23.374;2022-07-23T04:37:05;13.95;;;6.87;;
31872;SDS011;22407;42.820;23.374;2022-07-23T04:39:33;16.07;;;6.53;;
31872;SDS011;22407;42.820;23.374;2022-07-23T04:42:02;15.10;;;6.13;;
31872;SDS011;22407;42.820;23.374;2022-07-23T04:44:31;14.80;;;7.08;;
31872;SDS011;22407;42.820;23.374;2022-07-23T04:47:00;14.63;;;7.53;;
31872;SDS011;22407;42.820;23.374;2022-07-23T04:49:29;14.65;;;6.95;;
31872;SDS011;22407;42.820;23.374;2022-07-23T04:51:58;14.90;;;6.97;;
31872;SDS011;22407;42.820;23.374;2022-07-23T04:54:27;15.93;;;7.30;;
31872;SDS011;22407;42.820;23.374;2022-07-23T04:56:56;18.65;;;7.80;;
31872;SDS011;22407;42.820;23.374;2022-07-23T04:59:24;17.02;;;7.58;;
31872;SDS011;22407;42.820;23.374;2022-07-23T05:04:29;17.00;;;7.40;;
31872;SDS011;22407;42.820;23.374;2022-07-23T05:06:58;17.07;;;7.27;;
31872;SDS011;22407;42.820;23.374;2022-07-23T05:09:27;26.45;;;8.90;;
31872;SDS011;22407;42.820;23.374;2022-07-23T05:11:56;22.85;;;9.20;;
31872;SDS011;22407;42.820;23.374;2022-07-23T05:14:25;22.48;;;8.53;;
31872;SDS011;22407;42.820;23.374;2022-07-23T05:16:54;28.62;;;8.75;;
31872;SDS011;22407;42.820;23.374;2022-07-23T05:19:23;17.57;;;8.13;;
31872;SDS011;22407;42.820;23.374;2022-07-23T05:21:52;24.05;;;7.75;;
31872;SDS011;22407;42.820;23.374;2022-07-23T05:24:21;15.78;;;7.00;;
31872;SDS011;22407;42.820;23.374;2022-07-23T05:26:51;13.58;;;6.10;;
31872;SDS011;22407;42.820;23.374;2022-07-23T05:29:20;14.43;;;6.87;;
31872;SDS011;22407;42.820;23.374;2022-07-23T05:31:49;14.77;;;6.40;;
31872;SDS011;22407;42.820;23.374;2022-07-23T05:34:17;13.78;;;6.80;;
31872;SDS011;22407;42.820;23.374;2022-07-23T05:36:46;13.45;;;6.67;;
31872;SDS011;22407;42.820;23.374;2022-07-23T05:39:15;17.12;;;6.80;;
31872;SDS011;22407;42.820;23.374;2022-07-23T05:41:44;15.32;;;6.53;;
31872;SDS011;22407;42.820;23.374;2022-07-23T05:44:13;14.47;;;6.20;;
31872;SDS011;22407;42.820;23.374;2022-07-23T05:46:42;14.35;;;6.33;;
31872;SDS011;22407;42.820;23.374;2022-07-23T05:49:11;15.32;;;6.45;;
31872;SDS011;22407;42.820;23.374;2022-07-23T05:51:40;14.65;;;6.12;;
31872;SDS011;22407;42.820;23.374;2022-07-23T05:54:09;11.93;;;5.92;;
31872;SDS011;22407;42.820;23.374;2022-07-23T05:56:38;12.97;;;6.43;;
31872;SDS011;22407;42.820;23.374;2022-07-23T05:59:07;12.53;;;6.53;;
31872;SDS011;22407;42.820;23.374;2022-07-23T06:01:36;13.28;;;6.40;;
31872;SDS011;22407;42.820;23.374;2022-07-23T06:04:04;12.75;;;5.87;;
31872;SDS011;22407;42.820;23.374;2022-07-23T06:06:33;11.50;;;5.85;;
31872;SDS011;22407;42.820;23.374;2022-07-23T06:09:02;13.27;;;5.93;;
31872;SDS011;22407;42.820;23.374;2022-07-23T06:11:31;12.43;;;5.90;;
31872;SDS011;22407;42.820;23.374;2022-07-23T06:14:00;11.60;;;6.05;;
31872;SDS011;22407;42.820;23.374;2022-07-23T06:16:29;10.65;;;5.95;;
31872;SDS011;22407;42.820;23.374;2022-07-23T06:18:59;14.30;;;6.03;;
31872;SDS011;22407;42.820;23.374;2022-07-23T06:21:28;15.43;;;6.23;;
31872;SDS011;22407;42.820;23.374;2022-07-23T06:23:57;13.35;;;6.42;;
31872;SDS011;22407;42.820;23.374;2022-07-23T06:26:26;12.35;;;5.75;;
31872;SDS011;22407;42.820;23.374;2022-07-23T06:28:54;15.15;;;6.22;;
31872;SDS011;22407;42.820;23.374;2022-07-23T06:31:23;15.98;;;5.95;;
31872;SDS011;22407;42.820;23.374;2022-07-23T06:33:52;14.43;;;5.93;;
31872;SDS011;22407;42.820;23.374;2022-07-23T06:36:21;12.40;;;6.37;;
31872;SDS011;22407;42.820;23.374;2022-07-23T06:38:50;10.63;;;5.78;;
31872;SDS011;22407;42.820;23.374;2022-07-23T06:41:19;12.93;;;5.78;;
31872;SDS011;22407;42.820;23.374;2022-07-23T06:43:49;11.53;;;6.55;;
31872;SDS011;22407;42.820;23.374;2022-07-23T06:46:18;12.83;;;6.20;;
31872;SDS011;22407;42.820;23.374;2022-07-23T06:48:48;11.57;;;6.50;;
31872;SDS011;22407;42.820;23.374;2022-07-23T06:51:17;13.10;;;5.80;;
31872;SDS011;22407;42.820;23.374;2022-07-23T06:53:46;14.53;;;6.15;;
31872;SDS011;22407;42.820;23.374;2022-07-23T06:56:15;13.93;;;6.10;;
31872;SDS011;22407;42.820;23.374;2022-07-23T06:58:44;10.93;;;6.20;;
31872;SDS011;22407;42.820;23.374;2022-07-23T07:01:12;13.48;;;6.50;;
31872;SDS011;22407;42.820;23.374;2022-07-23T07:03:41;10.93;;;5.78;;
31872;SDS011;22407;42.820;23.374;2022-07-23T07:06:10;12.60;;;6.60;;
31872;SDS011;22407;42.820;23.374;2022-07-23T07:08:39;14.13;;;7.22;;
31872;SDS011;22407;42.820;23.374;2022-07-23T07:11:10;14.90;;;6.77;;
31872;SDS011;22407;42.820;23.374;2022-07-23T07:13:39;13.08;;;6.70;;
31872;SDS011;22407;42.820;23.374;2022-07-23T07:16:08;10.70;;;6.62;;
31872;SDS011;22407;42.820;23.374;2022-07-23T07:18:37;11.70;;;6.55;;
31872;SDS011;22407;42.820;23.374;2022-07-23T07:21:06;12.18;;;6.40;;
31872;SDS011;22407;42.820;23.374;2022-07-23T07:23:35;14.67;;;5.93;;
31872;SDS011;22407;42.820;23.374;2022-07-23T07:26:04;11.97;;;6.40;;
31872;SDS011;22407;42.820;23.374;2022-07-23T07:28:33;12.88;;;6.60;;
31872;SDS011;22407;42.820;23.374;2022-07-23T07:31:02;11.88;;;5.62;;
31872;SDS011;22407;42.820;23.374;2022-07-23T07:33:31;12.33;;;6.17;;
31872;SDS011;22407;42.820;23.374;2022-07-23T07:36:00;11.70;;;6.37;;
31872;SDS011;22407;42.820;23.374;2022-07-23T07:38:29;12.68;;;6.15;;
31872;SDS011;22407;42.820;23.374;2022-07-23T07:40:58;11.10;;;6.12;;
31872;SDS011;22407;42.820;23.374;2022-07-23T07:43:27;14.83;;;6.58;;
31872;SDS011;22407;42.820;23.374;2022-07-23T07:45:56;13.18;;;6.40;;
31872;SDS011;22407;42.820;23.374;2022-07-23T07:48:25;9.67;;;5.77;;
31872;SDS011;22407;42.820;23.374;2022-07-23T07:50:54;10.98;;;6.25;;
31872;SDS011;22407;42.820;23.374;2022-07-23T07:53:23;12.43;;;6.00;;
31872;SDS011;22407;42.820;23.374;2022-07-23T07:55:52;11.10;;;5.60;;
31872;SDS011;22407;42.820;23.374;2022-07-23T07:58:21;10.30;;;6.05;;
31872;SDS011;22407;42.820;23.374;2022-07-23T08:00:50;10.13;;;5.70;;
31872;SDS011;22407;42.820;23.374;2022-07-23T08:03:19;10.65;;;5.40;;
31872;SDS011;22407;42.820;23.374;2022-07-23T08:05:48;10.30;;;5.50;;
31872;SDS011;22407;42.820;23.374;2022-07-23T08:08:18;11.10;;;5.95;;
31872;SDS011;22407;42.820;23.374;2022-07-23T08:10:47;10.13;;;5.85;;
31872;SDS011;22407;42.820;23.374;2022-07-23T08:13:16;10.23;;;5.93;;
31872;SDS011;22407;42.820;23.374;2022-07-23T08:15:45;11.40;;;5.70;;
31872;SDS011;22407;42.820;23.374;2022-07-23T08:18:14;11.12;;;5.83;;
31872;SDS011;22407;42.820;23.374;2022-07-23T08:20:43;10.43;;;5.40;;
31872;SDS011;22407;42.820;23.374;2022-07-23T08:23:13;10.63;;;5.25;;
31872;SDS011;22407;42.820;23.374;2022-07-23T08:25:44;9.87;;;5.40;;
31872;SDS011;22407;42.820;23.374;2022-07-23T08:28:13;9.98;;;5.50;;
31872;SDS011;22407;42.820;23.374;2022-07-23T08:30:43;11.68;;;5.40;;
31872;SDS011;22407;42.820;23.374;2022-07-23T08:33:14;10.45;;;5.15;;
31872;SDS011;22407;42.820;23.374;2022-07-23T08:35:46;12.07;;;5.45;;
31872;SDS011;22407;42.820;23.374;2022-07-23T08:38:17;10.67;;;5.57;;
31872;SDS011;22407;42.820;23.374;2022-07-23T08:40:48;10.75;;;5.62;;
31872;SDS011;22407;42.820;23.374;2022-07-23T08:43:26;11.40;;;5.42;;
31872;SDS011;22407;42.820;23.374;2022-07-23T08:45:57;10.40;;;6.00;;
31872;SDS011;22407;42.820;23.374;2022-07-23T08:48:30;13.00;;;5.80;;
31872;SDS011;22407;42.820;23.374;2022-07-23T08:51:02;12.10;;;5.87;;
31872;SDS011;22407;42.820;23.374;2022-07-23T08:53:32;10.08;;;5.75;;
31872;SDS011;22407;42.820;23.374;2022-07-23T08:56:03;10.55;;;5.60;;
31872;SDS011;22407;42.820;23.374;2022-07-23T08:58:33;11.22;;;5.80;;
31872;SDS011;22407;42.820;23.374;2022-07-23T09:01:02;14.05;;;6.28;;
31872;SDS011;22407;42.820;23.374;2022-07-23T09:03:35;10.17;;;5.20;;
31872;SDS011;22407;42.820;23.374;2022-07-23T09:06:06;10.15;;;5.30;;
31872;SDS011;22407;42.820;23.374;2022-07-23T09:11:10;9.93;;;5.60;;
31872;SDS011;22407;42.820;23.374;2022-07-23T09:13:42;11.38;;;5.60;;
31872;SDS011;22407;42.820;23.374;2022-07-23T09:16:17;10.17;;;6.10;;
31872;SDS011;22407;42.820;23.374;2022-07-23T09:18:54;11.63;;;5.60;;
31872;SDS011;22407;42.820;23.374;2022-07-23T09:21:31;10.72;;;5.83;;
31872;SDS011;22407;42.820;23.374;2022-07-23T09:24:06;11.15;;;5.45;;
31872;SDS011;22407;42.820;23.374;2022-07-23T09:26:36;10.82;;;5.90;;
31872;SDS011;22407;42.820;23.374;2022-07-23T09:31:58;9.85;;;5.72;;
31872;SDS011;22407;42.820;23.374;2022-07-23T09:34:29;11.95;;;6.12;;
31872;SDS011;22407;42.820;23.374;2022-07-23T09:37:17;10.53;;;5.80;;
31872;SDS011;22407;42.820;23.374;2022-07-23T09:39:48;16.35;;;6.40;;
31872;SDS011;22407;42.820;23.374;2022-07-23T09:42:17;11.17;;;5.93;;
31872;SDS011;22407;42.820;23.374;2022-07-23T09:44:49;10.82;;;5.90;;
31872;SDS011;22407;42.820;23.374;2022-07-23T09:47:20;12.63;;;5.60;;
31872;SDS011;22407;42.820;23.374;2022-07-23T09:52:37;11.45;;;5.70;;
31872;SDS011;22407;42.820;23.374;2022-07-23T09:55:15;8.53;;;5.40;;
31872;SDS011;22407;42.820;23.374;2022-07-23T09:57:45;9.13;;;5.20;;
31872;SDS011;22407;42.820;23.374;2022-07-23T10:00:19;11.45;;;5.60;;
31872;SDS011;22407;42.820;23.374;2022-07-23T10:02:50;9.58;;;5.37;;
31872;SDS011;22407;42.820;23.374;2022-07-23T10:05:20;9.60;;;5.33;;
31872;SDS011;22407;42.820;23.374;2022-07-23T10:07:49;8.57;;;5.27;;
31872;SDS011;22407;42.820;23.374;2022-07-23T10:10:19;12.58;;;5.20;;
31872;SDS011;22407;42.820;23.374;2022-07-23T10:12:50;10.00;;;5.28;;
31872;SDS011;22407;42.820;23.374;2022-07-23T10:15:21;9.68;;;5.00;;
31872;SDS011;22407;42.820;23.374;2022-07-23T10:17:50;14.10;;;5.20;;
31872;SDS011;22407;42.820;23.374;2022-07-23T10:20:19;12.53;;;4.90;;
31872;SDS011;22407;42.820;23.374;2022-07-23T10:22:50;11.03;;;5.20;;
31872;SDS011;22407;42.820;23.374;2022-07-23T10:25:24;9.80;;;4.62;;
31872;SDS011;22407;42.820;23.374;2022-07-23T10:31:10;10.20;;;5.05;;
31872;SDS011;22407;42.820;23.374;2022-07-23T10:33:59;12.17;;;4.97;;
31872;SDS011;22407;42.820;23.374;2022-07-23T10:36:40;19.57;;;5.47;;
31872;SDS011;22407;42.820;23.374;2022-07-23T10:39:26;15.48;;;5.10;;
31872;SDS011;22407;42.820;23.374;2022-07-23T10:42:12;14.15;;;5.00;;
31872;SDS011;22407;42.820;23.374;2022-07-23T10:44:46;10.48;;;4.87;;
31872;SDS011;22407;42.820;23.374;2022-07-23T10:47:28;11.90;;;5.30;;
31872;SDS011;22407;42.820;23.374;2022-07-23T10:50:17;10.55;;;5.03;;
31872;SDS011;22407;42.820;23.374;2022-07-23T10:55:47;13.55;;;5.12;;
31872;SDS011;22407;42.820;23.374;2022-07-23T10:58:21;12.58;;;5.10;;
31872;SDS011;22407;42.820;23.374;2022-07-23T11:00:52;12.30;;;5.07;;
31872;SDS011;22407;42.820;23.374;2022-07-23T11:03:28;15.35;;;5.40;;
31872;SDS011;22407;42.820;23.374;2022-07-23T11:06:06;11.08;;;4.70;;
31872;SDS011;22407;42.820;23.374;2022-07-23T11:08:34;12.80;;;5.00;;
31872;SDS011;22407;42.820;23.374;2022-07-23T11:13:37;10.87;;;4.73;;
31872;SDS011;22407;42.820;23.374;2022-07-23T11:16:11;11.90;;;4.50;;
31872;SDS011;22407;42.820;23.374;2022-07-23T11:18:55;13.13;;;4.50;;
31872;SDS011;22407;42.820;23.374;2022-07-23T11:24:00;11.12;;;4.58;;
31872;SDS011;22407;42.820;23.374;2022-07-23T11:32:01;103.38;;;8.83;;
31872;SDS011;22407;42.820;23.374;2022-07-23T11:37:10;12.40;;;4.62;;
31872;SDS011;22407;42.820;23.374;2022-07-23T11:39:40;11.00;;;4.60;;
31872;SDS011;22407;42.820;23.374;2022-07-23T11:42:10;10.88;;;4.53;;
31872;SDS011;22407;42.820;23.374;2022-07-23T11:44:40;10.20;;;4.58;;
31872;SDS011;22407;42.820;23.374;2022-07-23T11:47:10;12.00;;;4.72;;
31872;SDS011;22407;42.820;23.374;2022-07-23T11:49:53;9.65;;;4.25;;
31872;SDS011;22407;42.820;23.374;2022-07-23T11:52:26;11.37;;;5.03;;
31872;SDS011;22407;42.820;23.374;2022-07-23T11:55:04;12.40;;;4.70;;
31872;SDS011;22407;42.820;23.374;2022-07-23T11:57:31;12.63;;;4.67;;
31872;SDS011;22407;42.820;23.374;2022-07-23T12:02:34;9.50;;;4.75;;
31872;SDS011;22407;42.820;23.374;2022-07-23T12:05:03;11.63;;;4.97;;
31872;SDS011;22407;42.820;23.374;2022-07-23T12:07:34;10.85;;;4.80;;
31872;SDS011;22407;42.820;23.374;2022-07-23T12:10:14;9.93;;;4.22;;
31872;SDS011;22407;42.820;23.374;2022-07-23T12:12:44;10.38;;;4.33;;
31872;SDS011;22407;42.820;23.374;2022-07-23T12:15:17;9.55;;;4.50;;
31872;SDS011;22407;42.820;23.374;2022-07-23T12:17:50;10.93;;;4.27;;
31872;SDS011;22407;42.820;23.374;2022-07-23T12:20:20;12.88;;;4.80;;
31872;SDS011;22407;42.820;23.374;2022-07-23T12:22:58;9.53;;;4.30;;
31872;SDS011;22407;42.820;23.374;2022-07-23T12:25:30;13.25;;;4.53;;
31872;SDS011;22407;42.820;23.374;2022-07-23T12:28:05;9.78;;;4.75;;
31872;SDS011;22407;42.820;23.374;2022-07-23T12:30:45;11.63;;;4.30;;
31872;SDS011;22407;42.820;23.374;2022-07-23T12:33:32;12.90;;;4.17;;
31872;SDS011;22407;42.820;23.374;2022-07-23T12:36:00;11.38;;;4.25;;
31872;SDS011;22407;42.820;23.374;2022-07-23T12:38:42;11.18;;;4.12;;
31872;SDS011;22407;42.820;23.374;2022-07-23T12:41:12;9.08;;;4.20;;
31872;SDS011;22407;42.820;23.374;2022-07-23T12:43:42;11.80;;;4.20;;
31872;SDS011;22407;42.820;23.374;2022-07-23T12:46:13;12.28;;;4.12;;
